Time;durP1;ratioP1;P1;durP2;ratioP2;P2;SDS_P1;SDS_P2;PMS_P1;PMS_P2;Temp;Humidity;BMP_temperature;BMP_pressure;BME280_temperature;BME280_humidity;BME280_pressure;Samples;Min_cycle;Max_cycle;Signal;HPM_P1;HPM_P2
2024/01/16 00:02:00;;;;;;;0.30;0.20;;;3.00;99.90;;;;;;5088407;28;20518;-76
2024/01/16 00:04:26;;;;;;;0.30;0.20;;;2.90;99.90;;;;;;5087966;28;20237;-76
2024/01/16 00:06:52;;;;;;;0.30;0.20;;;2.90;99.90;;;;;;5089483;28;20301;-73
2024/01/16 00:09:18;;;;;;;0.30;0.30;;;2.90;99.90;;;;;;5087656;28;20342;-76
2024/01/16 00:11:44;;;;;;;0.30;0.20;;;2.90;99.90;;;;;;5089715;28;20406;-73
2024/01/16 00:14:10;;;;;;;0.30;0.20;;;2.90;99.90;;;;;;5089177;28;20199;-73
2024/01/16 00:16:46;;;;;;;0.30;0.30;;;2.80;99.90;;;;;;5089535;28;20181;-73
2024/01/16 00:19:12;;;;;;;0.30;0.20;;;2.90;99.90;;;;;;5087508;28;20465;-73
2024/01/16 00:21:47;;;;;;;0.30;0.20;;;2.80;99.90;;;;;;5088497;28;20220;-73
2024/01/16 00:24:17;;;;;;;0.30;0.30;;;2.80;99.90;;;;;;5088001;28;20200;-73
2024/01/16 00:26:42;;;;;;;0.30;0.20;;;2.80;99.90;;;;;;5088088;28;20185;-73
2024/01/16 00:29:12;;;;;;;0.30;0.20;;;2.80;99.90;;;;;;5089008;28;20196;-76
2024/01/16 00:31:41;;;;;;;0.30;0.20;;;2.80;99.90;;;;;;5087986;28;20573;-74
2024/01/16 00:34:07;;;;;;;0.30;0.20;;;2.80;99.90;;;;;;5087563;28;20227;-76
2024/01/16 00:36:33;;;;;;;0.30;0.20;;;2.80;99.90;;;;;;5088291;28;20658;-76
2024/01/16 00:38:58;;;;;;;0.30;0.30;;;2.70;99.90;;;;;;5088722;28;20253;-76
2024/01/16 00:41:24;;;;;;;0.30;0.20;;;2.70;99.90;;;;;;5089006;28;20173;-76
2024/01/16 00:43:50;;;;;;;0.30;0.30;;;2.60;99.90;;;;;;5087714;28;20661;-73
2024/01/16 00:46:15;;;;;;;0.30;0.20;;;2.60;99.90;;;;;;5093288;28;20244;-73
2024/01/16 00:48:41;;;;;;;0.30;0.20;;;2.60;99.90;;;;;;5091528;28;20192;-73
2024/01/16 00:51:06;;;;;;;0.30;0.30;;;2.50;99.90;;;;;;5093104;28;20219;-76
2024/01/16 00:53:32;;;;;;;0.30;0.20;;;2.50;99.90;;;;;;5093240;28;20204;-73
2024/01/16 00:55:58;;;;;;;0.30;0.27;;;2.50;99.90;;;;;;5093297;28;20184;-75
2024/01/16 00:58:24;;;;;;;0.30;0.20;;;2.50;99.90;;;;;;5092155;28;20271;-76
2024/01/16 01:00:49;;;;;;;0.30;0.30;;;2.50;99.90;;;;;;5092452;28;20168;-76
2024/01/16 01:03:15;;;;;;;0.30;0.20;;;2.50;99.90;;;;;;5093062;28;20192;-73
2024/01/16 01:05:41;;;;;;;0.30;0.20;;;2.40;99.90;;;;;;5091597;28;20177;-76
2024/01/16 01:08:07;;;;;;;0.30;0.20;;;2.40;99.90;;;;;;5092715;28;20272;-76
2024/01/16 01:10:33;;;;;;;0.30;0.20;;;2.40;99.90;;;;;;5091094;28;20884;-76
2024/01/16 01:12:59;;;;;;;0.30;0.20;;;2.40;99.90;;;;;;5092509;28;20539;-73
2024/01/16 01:15:25;;;;;;;0.30;0.20;;;2.30;99.90;;;;;;5092532;28;20883;-73
2024/01/16 01:17:51;;;;;;;0.30;0.30;;;2.30;99.90;;;;;;5092649;28;20248;-76
2024/01/16 01:20:19;;;;;;;0.30;0.20;;;2.30;99.90;;;;;;5091114;28;20181;-76
2024/01/16 01:22:45;;;;;;;0.30;0.20;;;2.30;99.90;;;;;;5092711;28;20241;-73
2024/01/16 01:25:11;;;;;;;0.30;0.20;;;2.30;99.90;;;;;;5092281;28;20172;-76
2024/01/16 01:27:38;;;;;;;0.30;0.20;;;2.30;99.90;;;;;;5092593;28;20538;-76
2024/01/16 01:30:04;;;;;;;0.30;0.20;;;2.40;99.90;;;;;;5090562;28;20212;-75
2024/01/16 01:32:30;;;;;;;0.30;0.20;;;2.40;99.90;;;;;;5092194;28;20223;-75
2024/01/16 01:34:55;;;;;;;0.30;0.20;;;2.40;99.90;;;;;;5090923;28;20208;-76
2024/01/16 01:37:24;;;;;;;0.30;0.20;;;2.50;99.90;;;;;;5092526;28;20184;-75
2024/01/16 01:39:49;;;;;;;0.30;0.20;;;2.40;99.90;;;;;;5091468;28;20302;-73
2024/01/16 01:42:15;;;;;;;0.30;0.20;;;2.40;99.90;;;;;;5090951;28;20279;-76
2024/01/16 01:44:41;;;;;;;0.30;0.20;;;2.40;99.90;;;;;;5092066;28;20200;-73
2024/01/16 01:47:08;;;;;;;0.30;0.20;;;2.40;99.90;;;;;;5092056;28;20395;-76
2024/01/16 01:49:35;;;;;;;0.30;0.20;;;2.40;99.90;;;;;;5091487;28;20417;-73
2024/01/16 01:52:00;;;;;;;0.30;0.20;;;2.40;99.90;;;;;;5090336;28;20191;-77
2024/01/16 01:54:27;;;;;;;0.30;0.20;;;2.40;99.90;;;;;;5091800;28;20193;-76
2024/01/16 01:56:53;;;;;;;0.30;0.20;;;2.40;99.90;;;;;;5091664;28;20511;-73
2024/01/16 01:59:21;;;;;;;0.30;0.20;;;2.40;99.90;;;;;;5091337;28;20283;-76
2024/01/16 02:01:49;;;;;;;0.30;0.20;;;2.40;99.90;;;;;;5089710;28;20479;-76
2024/01/16 02:04:16;;;;;;;0.30;0.20;;;2.40;99.90;;;;;;5091420;28;20196;-76
2024/01/16 02:06:44;;;;;;;0.30;0.20;;;2.40;99.90;;;;;;5090447;28;20184;-73
2024/01/16 02:09:10;;;;;;;0.30;0.20;;;2.40;99.90;;;;;;5090955;28;20236;-76
2024/01/16 02:11:36;;;;;;;0.30;0.20;;;2.50;99.90;;;;;;5091512;28;20212;-73
2024/01/16 02:14:02;;;;;;;0.30;0.20;;;2.50;99.90;;;;;;5091026;28;20185;-76
2024/01/16 02:16:36;;;;;;;0.30;0.20;;;2.50;99.90;;;;;;5091592;28;20200;-75
2024/01/16 02:19:02;;;;;;;0.30;0.20;;;2.50;99.90;;;;;;5089739;28;20187;-76
2024/01/16 02:21:31;;;;;;;0.30;0.20;;;2.50;99.90;;;;;;5091608;28;20403;-76
2024/01/16 02:23:57;;;;;;;0.30;0.20;;;2.60;99.90;;;;;;5091004;28;20279;-75
2024/01/16 02:26:23;;;;;;;0.30;0.20;;;2.50;99.90;;;;;;5091546;28;20236;-76
2024/01/16 02:28:48;;;;;;;0.30;0.20;;;2.50;99.90;;;;;;5091062;28;20189;-76
2024/01/16 02:31:14;;;;;;;0.30;0.20;;;2.50;99.90;;;;;;5089461;28;20201;-73
2024/01/16 02:33:40;;;;;;;0.30;0.20;;;2.50;99.90;;;;;;5089587;28;20211;-73
2024/01/16 02:36:06;;;;;;;0.30;0.20;;;2.60;99.90;;;;;;5091076;28;20405;-76
2024/01/16 02:38:31;;;;;;;0.30;0.20;;;2.60;99.90;;;;;;5090389;28;20211;-76
2024/01/16 02:40:57;;;;;;;0.30;0.20;;;2.60;99.90;;;;;;5090568;28;20169;-74
2024/01/16 02:43:23;;;;;;;0.30;0.30;;;2.60;99.90;;;;;;5089427;28;20200;-73
2024/01/16 02:45:49;;;;;;;0.30;0.30;;;2.60;99.90;;;;;;5090955;28;20181;-72
2024/01/16 02:48:15;;;;;;;0.30;0.20;;;2.60;99.90;;;;;;5090810;28;20427;-73
2024/01/16 02:50:41;;;;;;;0.30;0.20;;;2.50;99.90;;;;;;5089420;28;20216;-73
2024/01/16 02:53:06;;;;;;;0.30;0.20;;;2.50;99.90;;;;;;5090173;28;20349;-73
2024/01/16 02:55:32;;;;;;;0.30;0.20;;;2.50;99.90;;;;;;5090996;28;20260;-73
2024/01/16 02:57:57;;;;;;;0.30;0.20;;;2.50;99.90;;;;;;5089305;28;20204;-76
2024/01/16 03:00:23;;;;;;;0.30;0.20;;;2.50;99.90;;;;;;5090473;28;20176;-76
2024/01/16 03:02:49;;;;;;;0.30;0.20;;;2.50;99.90;;;;;;5090752;28;20204;-73
2024/01/16 03:05:14;;;;;;;0.30;0.20;;;2.40;99.90;;;;;;5089075;28;20171;-74
2024/01/16 03:07:41;;;;;;;0.30;0.20;;;2.40;99.90;;;;;;5090059;28;20231;-73
2024/01/16 03:10:07;;;;;;;0.30;0.20;;;2.30;99.90;;;;;;5090045;28;20373;-73
2024/01/16 03:12:33;;;;;;;0.30;0.30;;;2.30;99.90;;;;;;5088865;28;20230;-76
2024/01/16 03:14:59;;;;;;;0.30;0.30;;;2.20;99.90;;;;;;5088811;28;20387;-73
2024/01/16 03:17:25;;;;;;;0.30;0.30;;;2.20;99.90;;;;;;5090530;28;20973;-73
2024/01/16 03:19:51;;;;;;;0.30;0.20;;;2.10;99.90;;;;;;5090167;28;20556;-73
2024/01/16 03:22:17;;;;;;;0.30;0.30;;;2.10;99.90;;;;;;5090828;28;20177;-73
2024/01/16 03:24:42;;;;;;;0.30;0.20;;;2.10;99.90;;;;;;5089837;28;20553;-76
2024/01/16 03:27:08;;;;;;;0.30;0.20;;;2.10;99.90;;;;;;5090304;28;20249;-73
2024/01/16 03:29:34;;;;;;;0.30;0.20;;;2.00;99.90;;;;;;5089910;28;20199;-76
2024/01/16 03:32:00;;;;;;;0.30;0.20;;;2.00;99.90;;;;;;5089680;28;20567;-73
2024/01/16 03:34:26;;;;;;;0.30;0.20;;;1.90;99.90;;;;;;5089837;28;20481;-76
2024/01/16 03:36:52;;;;;;;0.30;0.20;;;1.90;99.90;;;;;;5090109;28;20275;-73
2024/01/16 03:39:18;;;;;;;0.30;0.30;;;1.90;99.90;;;;;;5089672;28;20323;-73
2024/01/16 03:41:44;;;;;;;0.30;0.20;;;1.90;99.90;;;;;;5088226;28;20184;-76
2024/01/16 03:44:09;;;;;;;0.30;0.20;;;1.90;99.90;;;;;;5089442;28;20425;-76
2024/01/16 03:46:35;;;;;;;0.30;0.20;;;1.90;99.90;;;;;;5089898;28;20653;-74
2024/01/16 03:49:01;;;;;;;0.30;0.20;;;1.90;99.90;;;;;;5089298;28;20196;-76
2024/01/16 03:51:26;;;;;;;0.30;0.20;;;1.90;99.90;;;;;;5089791;28;20251;-76
2024/01/16 03:53:53;;;;;;;0.30;0.20;;;1.90;99.90;;;;;;5089791;28;20193;-75
2024/01/16 03:56:18;;;;;;;0.30;0.20;;;1.90;99.90;;;;;;5090173;28;20172;-74
2024/01/16 03:58:44;;;;;;;0.30;0.20;;;1.90;99.90;;;;;;5087958;28;20211;-73
2024/01/16 04:01:10;;;;;;;0.30;0.20;;;2.00;99.90;;;;;;5088349;28;20519;-73
2024/01/16 04:03:35;;;;;;;0.30;0.20;;;2.00;99.90;;;;;;5089256;28;20299;-73
2024/01/16 04:06:01;;;;;;;0.30;0.20;;;2.00;99.90;;;;;;5088308;28;20796;-74
2024/01/16 04:08:27;;;;;;;0.30;0.20;;;2.00;99.90;;;;;;5088508;28;20543;-73
2024/01/16 04:10:53;;;;;;;0.30;0.20;;;2.00;99.90;;;;;;5089217;28;20441;-75
2024/01/16 04:13:18;;;;;;;0.30;0.30;;;2.00;99.90;;;;;;5089367;28;20567;-74
2024/01/16 04:15:44;;;;;;;0.30;0.30;;;2.00;99.90;;;;;;5088209;28;20196;-72
2024/01/16 04:18:10;;;;;;;0.30;0.20;;;1.90;99.90;;;;;;5088149;28;20212;-73
2024/01/16 04:20:36;;;;;;;0.30;0.20;;;1.90;99.90;;;;;;5093183;28;20176;-73
2024/01/16 04:23:02;;;;;;;0.30;0.30;;;1.90;99.90;;;;;;5093868;28;20524;-72
2024/01/16 04:25:28;;;;;;;0.30;0.30;;;1.90;99.90;;;;;;5093461;28;20712;-76
2024/01/16 04:27:53;;;;;;;0.30;0.30;;;1.90;99.90;;;;;;5093557;28;20291;-76
2024/01/16 04:30:20;;;;;;;0.30;0.20;;;1.90;99.90;;;;;;5091877;28;20208;-73
2024/01/16 04:32:46;;;;;;;0.30;0.30;;;1.90;99.90;;;;;;5091575;28;20204;-76
2024/01/16 04:35:11;;;;;;;0.30;0.30;;;1.90;99.90;;;;;;5093257;28;20259;-75
2024/01/16 04:37:37;;;;;;;0.30;0.20;;;2.00;99.90;;;;;;5092160;28;20399;-73
2024/01/16 04:40:05;;;;;;;0.30;0.30;;;2.00;99.90;;;;;;5092731;28;20184;-73
2024/01/16 04:42:31;;;;;;;0.30;0.20;;;2.00;99.90;;;;;;5093088;28;20233;-73
2024/01/16 04:44:57;;;;;;;0.30;0.20;;;2.10;99.90;;;;;;5092551;28;20572;-76
2024/01/16 04:47:22;;;;;;;0.30;0.23;;;2.10;99.90;;;;;;5093370;28;20178;-73
2024/01/16 04:49:48;;;;;;;0.30;0.30;;;2.10;99.90;;;;;;5091460;28;20211;-76
2024/01/16 04:52:14;;;;;;;0.30;0.20;;;2.10;99.90;;;;;;5092922;28;20988;-76
2024/01/16 04:54:39;;;;;;;0.30;0.20;;;2.10;99.90;;;;;;5091139;28;20271;-76
2024/01/16 04:57:05;;;;;;;0.30;0.20;;;2.10;99.90;;;;;;5092034;28;20215;-75
2024/01/16 04:59:30;;;;;;;0.30;0.30;;;2.20;99.90;;;;;;5091438;28;20192;-73
2024/01/16 05:01:56;;;;;;;0.30;0.30;;;2.20;99.90;;;;;;5091625;28;20215;-76
2024/01/16 05:04:22;;;;;;;0.30;0.20;;;2.10;99.90;;;;;;5092152;28;20437;-74
2024/01/16 05:06:51;;;;;;;0.30;0.20;;;2.10;99.90;;;;;;5091506;28;20195;-73
2024/01/16 05:09:17;;;;;;;0.30;0.20;;;2.10;99.90;;;;;;5089553;28;20456;-76
2024/01/16 05:11:45;;;;;;;0.30;0.30;;;2.10;99.90;;;;;;5090668;28;20711;-73
2024/01/16 05:14:10;;;;;;;0.30;0.20;;;2.10;99.90;;;;;;5090037;28;20192;-76
2024/01/16 05:16:36;;;;;;;0.30;0.20;;;2.10;99.90;;;;;;5092867;28;20180;-75
2024/01/16 05:19:02;;;;;;;0.30;0.20;;;2.10;99.90;;;;;;5090541;28;20205;-76
2024/01/16 05:21:29;;;;;;;0.30;0.20;;;2.10;99.90;;;;;;5092539;28;20241;-77
2024/01/16 05:23:54;;;;;;;0.30;0.20;;;2.10;99.90;;;;;;5090714;28;20752;-76
2024/01/16 05:26:20;;;;;;;0.30;0.20;;;2.00;99.90;;;;;;5092126;28;20251;-72
2024/01/16 05:28:46;;;;;;;0.30;0.30;;;2.00;99.90;;;;;;5091431;28;20670;-76
2024/01/16 05:31:11;;;;;;;0.30;0.20;;;2.00;99.90;;;;;;5091604;28;20223;-76
2024/01/16 05:33:38;;;;;;;0.30;0.20;;;2.00;99.90;;;;;;5091509;28;20193;-74
2024/01/16 05:36:04;;;;;;;0.30;0.20;;;2.00;99.90;;;;;;5085006;28;20182;-72
2024/01/16 05:38:30;;;;;;;0.30;0.30;;;2.00;99.90;;;;;;5086010;28;20278;-76
2024/01/16 05:40:55;;;;;;;0.30;0.20;;;1.90;99.90;;;;;;5079936;28;20381;-78
2024/01/16 05:43:21;;;;;;;0.30;0.30;;;1.90;99.90;;;;;;5079832;28;20254;-73
2024/01/16 05:45:47;;;;;;;0.77;0.73;;;1.90;99.90;;;;;;5081037;28;20230;-77
2024/01/16 05:48:12;;;;;;;0.30;0.20;;;1.80;99.90;;;;;;5076359;28;20223;-77
2024/01/16 05:50:38;;;;;;;0.30;0.30;;;1.80;99.90;;;;;;5079851;28;20216;-78
2024/01/16 05:53:04;;;;;;;0.30;0.20;;;1.80;99.90;;;;;;5077780;28;20208;-78
2024/01/16 05:55:32;;;;;;;0.30;0.30;;;1.70;99.90;;;;;;5083308;28;20176;-74
2024/01/16 05:58:01;;;;;;;0.30;0.30;;;1.70;99.90;;;;;;5081572;28;20203;-78
2024/01/16 06:00:26;;;;;;;0.30;0.20;;;1.70;99.90;;;;;;5090686;28;20698;-78
2024/01/16 06:02:52;;;;;;;0.30;0.20;;;1.70;99.90;;;;;;5091545;28;20204;-73
2024/01/16 06:05:17;;;;;;;0.30;0.30;;;1.70;99.90;;;;;;5089992;28;20310;-77
2024/01/16 06:07:43;;;;;;;0.30;0.30;;;1.70;99.90;;;;;;5090713;28;20192;-72
2024/01/16 06:10:11;;;;;;;0.33;0.33;;;1.70;99.90;;;;;;5106047;28;20620;-74
2024/01/16 06:12:37;;;;;;;0.30;0.30;;;1.70;99.90;;;;;;5069172;28;20195;-81
2024/01/16 06:15:03;;;;;;;0.30;0.30;;;1.70;99.90;;;;;;5062202;28;20633;-75
2024/01/16 06:17:29;;;;;;;0.30;0.30;;;1.70;99.90;;;;;;5088619;28;20181;-83
2024/01/16 06:19:55;;;;;;;0.30;0.30;;;1.80;99.90;;;;;;5088171;28;20429;-79
2024/01/16 06:22:20;;;;;;;0.30;0.30;;;1.80;99.90;;;;;;5079592;28;20531;-82
2024/01/16 06:24:46;;;;;;;0.30;0.20;;;1.80;99.90;;;;;;5076927;28;20404;-76
2024/01/16 06:27:18;;;;;;;0.30;0.30;;;1.80;99.90;;;;;;5085674;28;20795;-76
2024/01/16 06:29:45;;;;;;;0.30;0.28;;;1.80;99.90;;;;;;5087837;28;20192;-86
2024/01/16 06:32:11;;;;;;;0.30;0.20;;;1.80;99.90;;;;;;5072799;28;20189;-85
2024/01/16 06:34:36;;;;;;;0.30;0.20;;;1.80;99.90;;;;;;5021167;28;20718;-78
2024/01/16 06:37:02;;;;;;;0.30;0.30;;;1.80;99.90;;;;;;5082345;28;20399;-78
2024/01/16 06:39:27;;;;;;;0.30;0.20;;;1.90;99.90;;;;;;5087239;28;20233;-85
2024/01/16 06:41:53;;;;;;;0.30;0.23;;;1.90;99.90;;;;;;5086297;28;20180;-85
2024/01/16 06:44:19;;;;;;;0.30;0.20;;;1.90;99.90;;;;;;5087109;28;20201;-75
2024/01/16 06:46:45;;;;;;;0.30;0.30;;;1.90;99.90;;;;;;5088243;28;20220;-84
2024/01/16 06:49:10;;;;;;;0.30;0.30;;;1.90;99.90;;;;;;5085244;28;20499;-85
2024/01/16 06:51:36;;;;;;;0.30;0.20;;;1.90;99.90;;;;;;5085079;28;20231;-84
2024/01/16 06:54:03;;;;;;;0.30;0.20;;;2.00;99.90;;;;;;5084429;28;20415;-76
2024/01/16 06:56:29;;;;;;;0.30;0.30;;;2.00;99.90;;;;;;5083755;28;20183;-76
2024/01/16 06:58:55;;;;;;;0.30;0.20;;;2.00;99.90;;;;;;5083315;28;20591;-76
2024/01/16 07:01:21;;;;;;;0.30;0.30;;;2.00;99.90;;;;;;5082829;28;20189;-76
2024/01/16 07:03:47;;;;;;;0.30;0.20;;;2.00;99.90;;;;;;5072819;28;20400;-82
2024/01/16 07:06:12;;;;;;;0.30;0.30;;;2.10;99.90;;;;;;5077452;28;20186;-82
2024/01/16 07:08:38;;;;;;;0.30;0.30;;;2.20;99.90;;;;;;5076348;28;20458;-77
2024/01/16 07:11:07;;;;;;;0.30;0.30;;;2.30;99.90;;;;;;5074049;28;20231;-77
2024/01/16 07:13:34;;;;;;;0.30;0.30;;;2.60;99.90;;;;;;5073748;28;20494;-84
2024/01/16 07:15:59;;;;;;;0.30;0.30;;;2.90;99.90;;;;;;5089816;28;20226;-84
2024/01/16 07:18:27;;;;;;;0.30;0.30;;;3.10;99.90;;;;;;5072485;28;20828;-77
2024/01/16 07:20:53;;;;;;;0.30;0.20;;;3.20;99.90;;;;;;5071159;28;20180;-77
2024/01/16 07:23:18;;;;;;;0.30;0.20;;;3.20;99.90;;;;;;5070952;28;20213;-77
2024/01/16 07:25:44;;;;;;;0.30;0.23;;;3.20;99.90;;;;;;5074277;28;20177;-83
2024/01/16 07:28:09;;;;;;;0.30;0.30;;;3.10;99.90;;;;;;5075141;28;20770;-84
2024/01/16 07:30:36;;;;;;;0.30;0.30;;;3.10;99.90;;;;;;5064934;28;20549;-78
2024/01/16 07:33:03;;;;;;;0.30;0.30;;;3.00;99.90;;;;;;5075936;28;20209;-77
2024/01/16 07:35:28;;;;;;;0.30;0.30;;;3.00;99.90;;;;;;5069118;28;20181;-83
2024/01/16 07:37:54;;;;;;;0.30;0.30;;;3.00;99.90;;;;;;5079144;28;20216;-83
2024/01/16 07:40:20;;;;;;;0.30;0.30;;;3.00;99.90;;;;;;5064560;28;20177;-76
2024/01/16 07:42:46;;;;;;;0.30;0.20;;;3.10;99.90;;;;;;5075671;28;20197;-76
2024/01/16 07:45:11;;;;;;;0.30;0.30;;;3.30;99.90;;;;;;5071712;28;20263;-77
2024/01/16 07:47:37;;;;;;;0.30;0.30;;;3.60;99.90;;;;;;5085640;28;20236;-84
2024/01/16 07:50:03;;;;;;;0.30;0.20;;;3.90;99.90;;;;;;5084219;28;20208;-77
2024/01/16 07:52:29;;;;;;;0.30;0.30;;;4.30;99.90;;;;;;5085489;28;20798;-76
2024/01/16 07:54:55;;;;;;;0.30;0.30;;;4.60;99.90;;;;;;5085730;28;20259;-83
2024/01/16 07:57:20;;;;;;;0.30;0.30;;;4.90;99.90;;;;;;5084513;28;20184;-83
2024/01/16 07:59:46;;;;;;;22.00;19.80;;;5.40;99.90;;;;;;5083008;28;20799;-83
2024/01/16 08:02:12;;;;;;;0.40;0.40;;;5.80;99.90;;;;;;5083872;28;20180;-84
2024/01/16 08:04:38;;;;;;;0.30;0.30;;;6.20;99.90;;;;;;5082924;28;20207;-84
2024/01/16 08:07:03;;;;;;;0.30;0.30;;;6.60;99.90;;;;;;5083464;28;20224;-84
2024/01/16 08:09:29;;;;;;;0.30;0.30;;;7.10;99.90;;;;;;5080718;28;20247;-76
2024/01/16 08:11:55;;;;;;;0.30;0.30;;;7.50;99.90;;;;;;5082966;28;20814;-84
2024/01/16 08:14:20;;;;;;;0.30;0.30;;;8.10;99.90;;;;;;5083128;28;20660;-85
2024/01/16 08:16:46;;;;;;;0.30;0.30;;;8.70;99.90;;;;;;5078488;28;20189;-85
2024/01/16 08:19:13;;;;;;;0.30;0.30;;;9.40;99.90;;;;;;5072588;28;20196;-86
2024/01/16 08:21:38;;;;;;;0.40;0.30;;;10.10;99.90;;;;;;5077881;28;20216;-79
2024/01/16 08:24:04;;;;;;;0.30;0.30;;;10.70;99.90;;;;;;5082775;28;20692;-86
2024/01/16 08:26:30;;;;;;;0.30;0.30;;;11.20;99.90;;;;;;5081784;28;20177;-81
2024/01/16 08:28:56;;;;;;;0.40;0.30;;;11.60;99.90;;;;;;5081025;28;20254;-86
2024/01/16 08:31:21;;;;;;;0.30;0.20;;;12.00;99.90;;;;;;5084030;28;20208;-80
2024/01/16 08:33:47;;;;;;;0.40;0.30;;;12.50;99.90;;;;;;5080370;28;20440;-87
2024/01/16 08:36:14;;;;;;;0.40;0.30;;;12.80;99.90;;;;;;5082597;28;20180;-85
2024/01/16 08:38:40;;;;;;;0.40;0.40;;;13.00;99.90;;;;;;5084211;28;20210;-80
2024/01/16 08:41:06;;;;;;;0.33;0.30;;;13.10;99.90;;;;;;5083742;28;21145;-86
2024/01/16 08:43:35;;;;;;;0.40;0.30;;;13.40;98.60;;;;;;5078412;28;20464;-79
2024/01/16 08:46:01;;;;;;;0.40;0.33;;;13.60;98.30;;;;;;5077222;28;20432;-85
2024/01/16 08:48:27;;;;;;;0.30;0.30;;;13.70;97.70;;;;;;5079137;28;21000;-87
2024/01/16 08:50:54;;;;;;;0.40;0.30;;;13.80;97.20;;;;;;5074104;28;20474;-86
2024/01/16 08:53:20;;;;;;;0.40;0.30;;;14.00;96.60;;;;;;5065583;28;20300;-87
2024/01/16 08:55:45;;;;;;;0.40;0.30;;;14.20;96.20;;;;;;5083586;28;20421;-80
2024/01/16 08:58:11;;;;;;;0.40;0.30;;;14.40;95.60;;;;;;5075854;28;20904;-80
2024/01/16 09:00:37;;;;;;;0.40;0.33;;;14.60;95.40;;;;;;5076150;28;20250;-82
2024/01/16 09:03:04;;;;;;;0.40;0.27;;;14.90;94.30;;;;;;5080488;28;20228;-87
2024/01/16 09:05:30;;;;;;;1.50;1.50;;;15.00;94.30;;;;;;5082065;28;20522;-81
2024/01/16 09:07:55;;;;;;;0.37;0.20;;;15.20;94.10;;;;;;5085292;28;20444;-81
2024/01/16 09:10:21;;;;;;;0.40;0.33;;;15.40;92.80;;;;;;5083854;28;20236;-81
2024/01/16 09:12:48;;;;;;;0.63;0.63;;;15.60;92.60;;;;;;5081821;28;20455;-86
2024/01/16 09:15:14;;;;;;;0.40;0.23;;;15.80;92.00;;;;;;5059230;28;20538;-87
2024/01/16 09:17:39;;;;;;;0.40;0.30;;;15.80;91.90;;;;;;5048713;28;20637;-87
2024/01/16 09:20:06;;;;;;;0.40;0.30;;;16.00;91.50;;;;;;5086239;28;20180;-87
2024/01/16 09:22:32;;;;;;;1.47;1.37;;;16.20;91.10;;;;;;5084211;28;20191;-81
2024/01/16 09:24:58;;;;;;;0.40;0.30;;;16.20;90.50;;;;;;5060875;28;20422;-86
2024/01/16 09:27:24;;;;;;;0.40;0.30;;;16.30;90.60;;;;;;5084624;28;20698;-81
2024/01/16 09:29:49;;;;;;;0.40;0.30;;;16.40;90.10;;;;;;5077728;28;20581;-86
2024/01/16 09:32:15;;;;;;;0.40;0.30;;;16.40;89.00;;;;;;5081416;28;20266;-82
2024/01/16 09:34:40;;;;;;;0.40;0.30;;;16.50;88.70;;;;;;5082988;28;20219;-87
2024/01/16 09:37:06;;;;;;;0.40;0.30;;;16.40;88.10;;;;;;5085135;28;20180;-87
2024/01/16 09:39:34;;;;;;;0.97;0.93;;;16.40;88.00;;;;;;5084145;28;20610;-87
2024/01/16 09:42:03;;;;;;;0.70;0.70;;;16.30;88.30;;;;;;5082426;28;20250;-79
2024/01/16 09:44:29;;;;;;;0.40;0.30;;;16.10;87.90;;;;;;5074179;28;20853;-78
2024/01/16 09:46:58;;;;;;;0.30;0.30;;;15.90;87.20;;;;;;5082823;28;20436;-79
2024/01/16 09:49:25;;;;;;;0.60;0.60;;;15.80;88.60;;;;;;5073841;28;20453;-86
2024/01/16 09:51:50;;;;;;;0.60;0.60;;;15.80;88.80;;;;;;5075972;28;20481;-86
2024/01/16 09:54:16;;;;;;;0.40;0.27;;;15.80;88.20;;;;;;5075990;28;20518;-85
2024/01/16 09:56:43;;;;;;;0.30;0.30;;;15.90;88.60;;;;;;5081825;28;20545;-85
2024/01/16 09:59:11;;;;;;;0.40;0.30;;;16.00;88.20;;;;;;5076428;28;20741;-81
2024/01/16 10:01:38;;;;;;;0.40;0.30;;;16.10;88.80;;;;;;5084099;28;20437;-79
2024/01/16 10:04:04;;;;;;;1.70;1.60;;;16.00;88.80;;;;;;5081375;28;20456;-79
2024/01/16 10:06:31;;;;;;;0.40;0.30;;;15.70;89.80;;;;;;5084808;28;20436;-88
2024/01/16 10:08:57;;;;;;;0.40;0.30;;;15.40;89.30;;;;;;5078539;28;20216;-88
2024/01/16 10:11:23;;;;;;;0.43;0.40;;;15.30;90.40;;;;;;5083936;28;20563;-79
2024/01/16 10:13:49;;;;;;;2.70;2.60;;;15.10;90.60;;;;;;5080541;28;20229;-86
2024/01/16 10:16:15;;;;;;;0.40;0.30;;;14.80;90.80;;;;;;5079602;28;20710;-78
2024/01/16 10:18:40;;;;;;;0.30;0.20;;;14.40;90.80;;;;;;5081937;28;20984;-86
2024/01/16 10:21:21;;;;;;;0.40;0.20;;;14.00;90.50;;;;;;5080517;28;20175;-78
2024/01/16 10:23:49;;;;;;;0.40;0.20;;;13.50;91.80;;;;;;5068088;28;20208;-79
2024/01/16 10:26:15;;;;;;;0.40;0.30;;;13.00;92.70;;;;;;5079211;28;20433;-78
2024/01/16 10:28:42;;;;;;;0.30;0.20;;;12.40;92.90;;;;;;5079198;28;21068;-87
2024/01/16 10:31:11;;;;;;;1.33;0.93;;;11.90;92.90;;;;;;5080371;28;20457;-80
2024/01/16 10:33:39;;;;;;;0.33;0.20;;;11.30;93.60;;;;;;5081424;28;21082;-80
2024/01/16 10:36:10;;;;;;;0.40;0.20;;;11.00;94.20;;;;;;5078547;28;20435;-79
2024/01/16 10:38:39;;;;;;;0.40;0.30;;;10.70;94.40;;;;;;5079479;28;20492;-80
2024/01/16 10:41:17;;;;;;;0.30;0.30;;;10.50;94.80;;;;;;5079381;28;20176;-86
2024/01/16 10:43:44;;;;;;;0.50;0.47;;;10.30;95.50;;;;;;5082767;28;20445;-86
2024/01/16 10:46:17;;;;;;;0.30;0.20;;;10.20;95.80;;;;;;5077647;28;20189;-86
2024/01/16 10:48:59;;;;;;;0.30;0.30;;;10.20;96.60;;;;;;5083515;28;20685;-79
2024/01/16 10:51:26;;;;;;;0.40;0.20;;;10.20;96.60;;;;;;5071537;28;20204;-86
2024/01/16 10:53:59;;;;;;;0.30;0.20;;;10.00;96.60;;;;;;5075973;28;20204;-78
2024/01/16 10:56:29;;;;;;;0.65;0.65;;;10.00;97.10;;;;;;5088678;28;20221;-79
2024/01/16 10:59:17;;;;;;;0.30;0.20;;;9.90;97.00;;;;;;5077183;28;20201;-86
2024/01/16 11:01:48;;;;;;;0.30;0.20;;;9.80;97.10;;;;;;5078977;28;20197;-78
2024/01/16 11:04:15;;;;;;;0.30;0.20;;;9.80;97.30;;;;;;5081635;28;20245;-79
2024/01/16 11:06:42;;;;;;;0.30;0.20;;;9.70;97.00;;;;;;5079937;28;20184;-79
2024/01/16 11:09:09;;;;;;;0.88;0.85;;;9.60;96.90;;;;;;5077042;28;20228;-85
2024/01/16 11:11:37;;;;;;;8.90;2.85;;;9.60;97.30;;;;;;5083283;28;20216;-86
2024/01/16 11:14:03;;;;;;;0.30;0.20;;;9.50;97.20;;;;;;5081968;28;20572;-79
2024/01/16 11:16:32;;;;;;;0.60;0.60;;;9.40;97.40;;;;;;5082071;28;20192;-80
2024/01/16 11:18:58;;;;;;;0.30;0.20;;;9.30;97.60;;;;;;5082216;28;20231;-78
2024/01/16 11:21:25;;;;;;;0.30;0.20;;;9.20;98.20;;;;;;5082302;28;20184;-86
2024/01/16 11:23:51;;;;;;;0.30;0.25;;;9.20;98.80;;;;;;5079622;28;20359;-79
2024/01/16 11:26:32;;;;;;;0.30;0.20;;;9.10;99.80;;;;;;5086011;28;20210;-85
2024/01/16 11:29:21;;;;;;;0.30;0.20;;;9.10;99.50;;;;;;5083126;28;20506;-79
2024/01/16 11:31:47;;;;;;;0.30;0.20;;;9.00;99.00;;;;;;5080190;28;20489;-79
2024/01/16 11:34:12;;;;;;;0.30;0.20;;;8.90;98.90;;;;;;5079983;28;20291;-79
2024/01/16 11:36:57;;;;;;;0.30;0.27;;;8.80;99.40;;;;;;5075920;28;20824;-87
2024/01/16 11:39:26;;;;;;;0.30;0.20;;;8.80;99.30;;;;;;5073897;28;20439;-79
2024/01/16 11:41:56;;;;;;;13.77;3.65;;;8.80;99.60;;;;;;5073314;28;20219;-86
2024/01/16 11:44:50;;;;;;;0.30;0.20;;;8.80;99.30;;;;;;5078212;28;20196;-86
2024/01/16 11:47:18;;;;;;;0.30;0.20;;;8.80;99.00;;;;;;5081446;28;20271;-78
2024/01/16 11:49:43;;;;;;;0.30;0.20;;;8.80;99.50;;;;;;5077526;28;20192;-78
2024/01/16 11:52:11;;;;;;;0.30;0.20;;;8.80;99.40;;;;;;5071494;28;21004;-87
2024/01/16 11:54:37;;;;;;;0.30;0.20;;;8.80;99.60;;;;;;5080863;28;20582;-79
2024/01/16 11:57:47;;;;;;;0.30;0.20;;;8.80;99.30;;;;;;5073385;28;20201;-86
2024/01/16 12:00:19;;;;;;;0.30;0.20;;;8.80;99.80;;;;;;5075671;28;20749;-79
2024/01/16 12:02:45;;;;;;;0.30;0.20;;;8.70;99.90;;;;;;5080651;28;20209;-86
2024/01/16 12:05:11;;;;;;;0.30;0.20;;;8.50;99.90;;;;;;5077516;28;20180;-78
2024/01/16 12:07:50;;;;;;;0.30;0.20;;;8.40;99.90;;;;;;5079777;28;20466;-86
2024/01/16 12:10:17;;;;;;;0.30;0.20;;;8.40;99.90;;;;;;5073722;28;20608;-79
2024/01/16 12:12:44;;;;;;;0.30;0.20;;;8.30;99.90;;;;;;5077011;28;20197;-79
2024/01/16 12:15:20;;;;;;;0.30;0.20;;;8.20;99.90;;;;;;5079036;28;20176;-85
2024/01/16 12:18:00;;;;;;;0.30;0.20;;;8.30;99.90;;;;;;5075147;28;20231;-85
2024/01/16 12:20:30;;;;;;;0.30;0.30;;;8.20;99.90;;;;;;5073896;28;20176;-79
2024/01/16 12:22:57;;;;;;;0.30;0.20;;;8.20;99.90;;;;;;5073235;28;20305;-85
2024/01/16 12:25:23;;;;;;;0.30;0.20;;;8.10;99.90;;;;;;5069508;28;20508;-86
2024/01/16 12:28:00;;;;;;;0.30;0.20;;;8.10;99.90;;;;;;5070157;28;20219;-79
2024/01/16 12:30:31;;;;;;;0.30;0.20;;;8.10;99.90;;;;;;5073071;28;20208;-79
2024/01/16 12:33:03;;;;;;;9.30;9.00;;;8.00;99.90;;;;;;5073135;28;20673;-86
2024/01/16 12:35:29;;;;;;;0.30;0.20;;;8.00;99.90;;;;;;5075478;28;20586;-79
2024/01/16 12:37:59;;;;;;;0.33;0.27;;;7.90;99.90;;;;;;5074943;28;20207;-78
2024/01/16 12:40:25;;;;;;;0.30;0.20;;;7.80;99.90;;;;;;5071071;28;20357;-79
2024/01/16 12:42:51;;;;;;;0.30;0.20;;;7.80;99.90;;;;;;5084464;28;20291;-86
2024/01/16 12:45:17;;;;;;;0.30;0.20;;;7.80;99.90;;;;;;5082833;28;20169;-79
2024/01/16 12:47:44;;;;;;;0.30;0.30;;;7.70;99.90;;;;;;5078484;28;20791;-79
2024/01/16 12:50:10;;;;;;;0.30;0.20;;;7.50;99.90;;;;;;5083123;28;20220;-86
2024/01/16 12:52:36;;;;;;;0.30;0.20;;;7.40;99.90;;;;;;5078680;28;20191;-86
2024/01/16 12:55:04;;;;;;;0.30;0.20;;;7.40;99.90;;;;;;5080456;28;20417;-85